createdAt,value
2023-01-07T00:01:26.593Z,101448.16
2023-01-07T00:03:54.544Z,101446.69
2023-01-07T00:06:23.677Z,101443.88
2023-01-07T00:08:51.632Z,101443.41
2023-01-07T00:11:20.667Z,101440.06
2023-01-07T00:13:50.246Z,101444.06
2023-01-07T00:16:19.573Z,101428.41
2023-01-07T00:18:46.883Z,101435.44
2023-01-07T00:21:16.463Z,101433.94
2023-01-07T00:23:44.821Z,101445.88
2023-01-07T00:26:14.048Z,101438.44
2023-01-07T00:28:42.523Z,101434.41
2023-01-07T00:31:12.375Z,101425.31
2023-01-07T00:34:06.896Z,101431.56
2023-01-07T00:36:44.588Z,101419.94
2023-01-07T00:39:20.345Z,101424.69
2023-01-07T00:42:06.922Z,101420.13
2023-01-07T00:44:34.245Z,101415.09
2023-01-07T00:47:00.900Z,101421.69
2023-01-07T00:49:27.501Z,101410.94
2023-01-07T00:51:53.973Z,101410.75
2023-01-07T00:54:21.048Z,101411.75
2023-01-07T00:56:47.523Z,101402.38
2023-01-07T00:59:13.894Z,101400.03
2023-01-07T01:01:41.028Z,101395.38
2023-01-07T01:04:08.156Z,101401.69
2023-01-07T01:06:34.726Z,101394.66
2023-01-07T01:09:01.336Z,101408.78
2023-01-07T01:11:27.744Z,101393.81
2023-01-07T01:13:54.199Z,101395.47
2023-01-07T01:16:20.735Z,101386.03
2023-01-07T01:18:48.543Z,101372.56
2023-01-07T01:21:16.008Z,101379.63
2023-01-07T01:23:43.070Z,101373.72
2023-01-07T01:26:12.984Z,101376.75
2023-01-07T01:28:39.575Z,101388.66
2023-01-07T01:31:08.370Z,101386.31
2023-01-07T01:33:53.768Z,101388.44
2023-01-07T01:36:20.323Z,101371.94
2023-01-07T01:38:46.818Z,101370.41
2023-01-07T01:41:18.270Z,101362.69
2023-01-07T01:43:47.006Z,101358.63
2023-01-07T01:46:23.728Z,101365.59
2023-01-07T01:49:02.668Z,101369.22
2023-01-07T01:51:36.150Z,101366.53
2023-01-07T01:54:06.740Z,101366.22
2023-01-07T01:56:37.820Z,101365.41
2023-01-07T01:59:08.986Z,101363.59
2023-01-07T02:01:38.491Z,101365.78
2023-01-07T02:04:13.308Z,101365.72
2023-01-07T02:07:00.592Z,101351.22
2023-01-07T02:09:28.814Z,101365.03
2023-01-07T02:12:23.733Z,101358.88
2023-01-07T02:15:14.155Z,101369.78
2023-01-07T02:18:11.671Z,101367.72
2023-01-07T02:20:48.821Z,101368.00
2023-01-07T02:24:21.451Z,101362.59
2023-01-07T02:27:02.958Z,101360.56
2023-01-07T02:30:03.717Z,101362.41
2023-01-07T02:32:51.884Z,101361.03
2023-01-07T02:36:01.796Z,101359.91
2023-01-07T02:38:51.379Z,101361.38
2023-01-07T02:41:30.896Z,101363.44
2023-01-07T02:44:05.908Z,101354.22
2023-01-07T02:47:01.007Z,101350.16
2023-01-07T02:49:27.442Z,101357.88
2023-01-07T02:51:53.965Z,101362.06
2023-01-07T02:54:26.915Z,101357.16
2023-01-07T02:57:24.366Z,101355.66
2023-01-07T03:00:37.168Z,101347.66
2023-01-07T03:03:15.802Z,101346.94
2023-01-07T03:05:58.378Z,101338.31
2023-01-07T03:08:49.510Z,101330.59
2023-01-07T03:11:19.679Z,101324.94
2023-01-07T03:13:53.731Z,101323.22
2023-01-07T03:16:36.354Z,101329.00
2023-01-07T03:19:18.498Z,101318.31
2023-01-07T03:21:47.673Z,101325.84
2023-01-07T03:24:15.876Z,101319.28
2023-01-07T03:26:48.660Z,101319.47
2023-01-07T03:29:17.413Z,101316.31
2023-01-07T03:32:01.489Z,101323.53
2023-01-07T03:34:30.403Z,101315.81
2023-01-07T03:37:03.828Z,101312.59
2023-01-07T03:39:35.209Z,101311.00
2023-01-07T03:42:27.397Z,101310.47
2023-01-07T03:44:54.599Z,101313.53
2023-01-07T03:47:24.006Z,101306.47
2023-01-07T03:49:50.742Z,101303.59
2023-01-07T03:52:17.187Z,101301.09
2023-01-07T03:54:43.632Z,101302.75
2023-01-07T03:57:10.188Z,101308.31
2023-01-07T03:59:36.673Z,101294.03
2023-01-07T04:02:04.740Z,101288.56
2023-01-07T04:04:32.330Z,101288.91
2023-01-07T04:06:59.198Z,101285.56
2023-01-07T04:09:26.588Z,101284.91
2023-01-07T04:11:53.191Z,101276.84
2023-01-07T04:14:19.561Z,101279.06
2023-01-07T04:16:46.004Z,101271.53
2023-01-07T04:19:12.572Z,101278.66
2023-01-07T04:21:39.304Z,101272.75
2023-01-07T04:24:06.205Z,101272.91
2023-01-07T04:26:33.756Z,101271.06
2023-01-07T04:29:00.601Z,101258.44
2023-01-07T04:31:27.969Z,101264.00
2023-01-07T04:33:54.970Z,101257.66
2023-01-07T04:36:22.005Z,101258.97
2023-01-07T04:38:49.035Z,101255.97
2023-01-07T04:41:16.545Z,101255.47
2023-01-07T04:43:43.088Z,101248.22
2023-01-07T04:46:09.605Z,101258.78
2023-01-07T04:48:36.458Z,101250.09
2023-01-07T04:51:03.360Z,101255.63
2023-01-07T04:53:29.809Z,101242.16
2023-01-07T04:55:56.357Z,101248.41
2023-01-07T04:58:23.143Z,101235.94
2023-01-07T05:00:54.469Z,101239.47
2023-01-07T05:03:21.991Z,101233.63
2023-01-07T05:05:48.499Z,101226.03
2023-01-07T05:08:16.081Z,101228.59
2023-01-07T05:10:42.460Z,101227.56
2023-01-07T05:13:15.233Z,101219.16
2023-01-07T05:15:42.441Z,101219.69
2023-01-07T05:18:09.675Z,101215.78
2023-01-07T05:20:36.258Z,101216.44
2023-01-07T05:23:04.536Z,101209.41
2023-01-07T05:25:33.842Z,101200.66
2023-01-07T05:28:00.858Z,101200.47
2023-01-07T05:30:29.352Z,101207.44
2023-01-07T05:32:56.342Z,101202.25
2023-01-07T05:35:24.232Z,101207.34
2023-01-07T05:37:50.834Z,101209.75
2023-01-07T05:40:18.542Z,101199.72
2023-01-07T05:42:44.991Z,101201.84
2023-01-07T05:45:11.724Z,101191.50
2023-01-07T05:47:38.156Z,101179.97
2023-01-07T05:50:05.011Z,101191.91
2023-01-07T05:52:31.378Z,101182.75
2023-01-07T05:54:57.776Z,101181.72
2023-01-07T05:57:24.211Z,101176.66
2023-01-07T05:59:50.645Z,101172.81
2023-01-07T06:02:17.727Z,101177.00
2023-01-07T06:04:44.202Z,101170.53
2023-01-07T06:07:10.639Z,101176.25
2023-01-07T06:09:37.072Z,101166.22
2023-01-07T06:12:03.558Z,101165.84
2023-01-07T06:14:30.026Z,101166.88
2023-01-07T06:16:56.423Z,101153.59
2023-01-07T06:19:23.128Z,101153.44
2023-01-07T06:21:49.975Z,101147.88
2023-01-07T06:24:16.403Z,101145.16
2023-01-07T06:26:42.856Z,101136.34
2023-01-07T06:29:10.944Z,101132.00
2023-01-07T06:31:37.393Z,101125.59
2023-01-07T06:34:03.805Z,101129.66
2023-01-07T06:36:30.223Z,101132.63
2023-01-07T06:38:56.616Z,101129.59
2023-01-07T06:41:23.025Z,101123.56
2023-01-07T06:43:49.466Z,101124.84
2023-01-07T06:46:16.176Z,101121.13
2023-01-07T06:48:42.617Z,101119.28
2023-01-07T06:51:09.055Z,101120.78
2023-01-07T06:53:35.409Z,101124.28
2023-01-07T06:56:01.874Z,101119.28
2023-01-07T06:58:28.269Z,101112.03
2023-01-07T07:00:54.764Z,101116.78
2023-01-07T07:03:21.139Z,101114.28
2023-01-07T07:05:47.500Z,101103.69
2023-01-07T07:08:13.927Z,101113.63
2023-01-07T07:10:40.350Z,101114.44
2023-01-07T07:13:06.743Z,101100.81
2023-01-07T07:15:33.145Z,101117.28
2023-01-07T07:17:59.587Z,101109.03
2023-01-07T07:20:26.009Z,101104.97
2023-01-07T07:22:52.454Z,101100.25
2023-01-07T07:25:19.061Z,101095.22
2023-01-07T07:27:46.639Z,101095.72
2023-01-07T07:30:15.058Z,101097.38
2023-01-07T07:32:42.640Z,101091.91
2023-01-07T07:35:09.943Z,101088.47
2023-01-07T07:37:36.823Z,101081.88
2023-01-07T07:40:04.752Z,101089.84
2023-01-07T07:42:31.322Z,101094.75
2023-01-07T07:44:58.687Z,101086.13
2023-01-07T07:47:25.062Z,101087.91
2023-01-07T07:49:51.474Z,101083.94
2023-01-07T07:52:18.476Z,101078.38
2023-01-07T07:54:44.917Z,101079.56
2023-01-07T07:57:11.313Z,101079.56
2023-01-07T07:59:37.792Z,101083.56
2023-01-07T08:02:04.219Z,101073.09
2023-01-07T08:04:34.045Z,101068.19
2023-01-07T08:07:01.718Z,101078.13
2023-01-07T08:09:28.218Z,101066.06
2023-01-07T08:11:54.749Z,101066.44
2023-01-07T08:14:21.315Z,101065.69
2023-01-07T08:16:47.672Z,101064.84
2023-01-07T08:19:15.063Z,101060.78
2023-01-07T08:21:41.707Z,101065.22
2023-01-07T08:24:08.303Z,101064.75
2023-01-07T08:26:34.740Z,101059.72
2023-01-07T08:29:01.145Z,101050.28
2023-01-07T08:31:27.637Z,101056.44
2023-01-07T08:33:54.049Z,101055.97
2023-01-07T08:36:23.852Z,101052.25
2023-01-07T08:38:52.352Z,101053.25
2023-01-07T08:41:22.621Z,101053.56
2023-01-07T08:43:49.221Z,101061.16
2023-01-07T08:46:16.105Z,101048.06
2023-01-07T08:48:42.546Z,101043.59
2023-01-07T08:51:08.977Z,101033.16
2023-01-07T08:53:35.397Z,101025.56
2023-01-07T08:56:01.802Z,101026.84
2023-01-07T08:58:28.264Z,101030.81
2023-01-07T09:00:54.745Z,101034.34
2023-01-07T09:03:21.473Z,101031.09
2023-01-07T09:05:47.869Z,101016.63
2023-01-07T09:08:14.549Z,101020.81
2023-01-07T09:10:40.914Z,101011.72
2023-01-07T09:13:07.860Z,101014.03
2023-01-07T09:15:34.366Z,101013.41
2023-01-07T09:18:03.468Z,101010.25
2023-01-07T09:20:30.644Z,101003.09
2023-01-07T09:22:56.998Z,100997.34
2023-01-07T09:25:23.399Z,100999.31
2023-01-07T09:27:49.942Z,100988.00
2023-01-07T09:30:16.609Z,100999.78
2023-01-07T09:32:43.792Z,100996.97
2023-01-07T09:35:10.675Z,100988.75
2023-01-07T09:37:37.555Z,100984.00
2023-01-07T09:40:14.383Z,100984.00
2023-01-07T09:42:51.762Z,100961.84
2023-01-07T09:45:32.456Z,100979.09
2023-01-07T09:48:02.697Z,100965.75
2023-01-07T09:50:41.188Z,100969.81
2023-01-07T09:53:14.262Z,100959.13
2023-01-07T09:56:10.983Z,100959.91
2023-01-07T09:58:28.985Z,100958.50
2023-01-07T10:01:06.745Z,100953.88
2023-01-07T10:03:49.265Z,100950.19
2023-01-07T10:06:43.967Z,100956.06
2023-01-07T10:09:35.901Z,100955.72
2023-01-07T10:12:14.303Z,100942.31
2023-01-07T10:14:51.876Z,100937.41
2023-01-07T10:17:42.527Z,100924.72
2023-01-07T10:20:42.636Z,100923.59
2023-01-07T10:23:15.916Z,100909.69
2023-01-07T10:25:52.556Z,100909.50
2023-01-07T10:28:34.239Z,100902.84
2023-01-07T10:31:02.693Z,100901.59
2023-01-07T10:33:32.679Z,100887.69
2023-01-07T10:36:25.489Z,100900.19
2023-01-07T10:39:13.721Z,100884.06
2023-01-07T10:41:58.719Z,100879.41
2023-01-07T10:44:44.154Z,100866.41
2023-01-07T10:47:30.278Z,100870.97
2023-01-07T10:50:21.832Z,100859.03
2023-01-07T10:53:05.487Z,100842.84
2023-01-07T10:55:46.146Z,100835.16
2023-01-07T10:58:12.579Z,100827.22
2023-01-07T11:00:40.261Z,100839.91
2023-01-07T11:03:18.236Z,100825.94
2023-01-07T11:05:46.687Z,100813.00
2023-01-07T11:08:29.138Z,100812.31
2023-01-07T11:10:58.015Z,100804.88
2023-01-07T11:13:32.061Z,100794.25
2023-01-07T11:16:22.070Z,100793.03
2023-01-07T11:18:54.909Z,100794.91
2023-01-07T11:21:43.384Z,100790.78
2023-01-07T11:24:19.845Z,100785.19
2023-01-07T11:26:46.639Z,100781.66
2023-01-07T11:29:29.672Z,100769.88
2023-01-07T11:31:58.949Z,100770.94
2023-01-07T11:34:27.065Z,100777.94
2023-01-07T11:36:54.001Z,100758.50
2023-01-07T11:39:23.871Z,100750.56
2023-01-07T11:42:32.359Z,100756.78
2023-01-07T11:45:23.042Z,100748.09
2023-01-07T11:48:04.554Z,100741.47
2023-01-07T11:50:41.040Z,100743.59
2023-01-07T11:53:13.522Z,100740.91
2023-01-07T11:55:41.391Z,100734.63
2023-01-07T11:58:28.017Z,100732.13
2023-01-07T12:01:08.790Z,100719.47
2023-01-07T12:04:02.818Z,100714.47
2023-01-07T12:06:38.809Z,100714.75
2023-01-07T12:09:24.858Z,100706.88
2023-01-07T12:11:53.018Z,100701.34
2023-01-07T12:14:25.101Z,100696.34
2023-01-07T12:16:51.923Z,100684.31
2023-01-07T12:19:41.204Z,100684.09
2023-01-07T12:22:28.888Z,100682.81
2023-01-07T12:25:13.052Z,100682.84
2023-01-07T12:28:01.774Z,100670.03
2023-01-07T12:30:54.537Z,100671.63
2023-01-07T12:33:38.601Z,100650.09
2023-01-07T12:36:12.693Z,100658.44
2023-01-07T12:38:47.374Z,100644.38
2023-01-07T12:41:20.689Z,100636.47
2023-01-07T12:43:57.678Z,100636.06
2023-01-07T12:46:28.413Z,100641.41
2023-01-07T12:49:04.876Z,100627.31
2023-01-07T12:51:39.541Z,100625.44
2023-01-07T12:54:52.455Z,100607.28
2023-01-07T12:57:28.854Z,100610.41
2023-01-07T13:00:18.044Z,100593.00
2023-01-07T13:03:05.789Z,100593.66
2023-01-07T13:05:45.013Z,100580.59
2023-01-07T13:08:25.293Z,100575.16
2023-01-07T13:10:58.777Z,100573.66
2023-01-07T13:13:32.473Z,100554.06
2023-01-07T13:15:59.123Z,100549.03
2023-01-07T13:18:25.689Z,100547.16
2023-01-07T13:20:52.046Z,100556.50
2023-01-07T13:23:31.211Z,100536.00
2023-01-07T13:26:15.145Z,100529.16
2023-01-07T13:29:04.442Z,100542.44
2023-01-07T13:32:08.356Z,100524.19
2023-01-07T13:34:45.034Z,100524.81
2023-01-07T13:37:27.291Z,100519.66
2023-01-07T13:40:25.828Z,100518.00
2023-01-07T13:43:00.662Z,100508.06
2023-01-07T13:45:34.159Z,100506.97
2023-01-07T13:48:05.649Z,100500.16
2023-01-07T13:50:43.033Z,100497.03
2023-01-07T13:53:15.389Z,100495.44
2023-01-07T13:55:48.783Z,100492.75
2023-01-07T13:58:30.213Z,100480.97
2023-01-07T14:01:07.795Z,100491.25
2023-01-07T14:03:50.139Z,100472.44
2023-01-07T14:06:23.646Z,100472.59
2023-01-07T14:08:57.260Z,100462.50
2023-01-07T14:11:29.648Z,100465.19
2023-01-07T14:14:21.769Z,100462.31
2023-01-07T14:17:02.302Z,100451.31
2023-01-07T14:19:45.417Z,100453.19
2023-01-07T14:22:17.767Z,100453.59
2023-01-07T14:25:08.942Z,100457.09
2023-01-07T14:27:57.229Z,100450.72
2023-01-07T14:30:32.658Z,100445.97
2023-01-07T14:33:02.823Z,100445.50
2023-01-07T14:35:33.919Z,100454.47
2023-01-07T14:38:00.596Z,100437.47
2023-01-07T14:40:26.910Z,100443.25
2023-01-07T14:42:54.632Z,100440.56
2023-01-07T14:45:36.368Z,100442.22
2023-01-07T14:48:08.920Z,100447.16
2023-01-07T14:51:03.664Z,100446.16
2023-01-07T14:53:57.123Z,100441.38
2023-01-07T14:56:47.444Z,100439.91
2023-01-07T14:59:23.774Z,100429.38
2023-01-07T15:02:27.870Z,100427.31
2023-01-07T15:05:31.289Z,100423.81
2023-01-07T15:08:20.303Z,100418.41
2023-01-07T15:11:09.600Z,100421.50
2023-01-07T15:14:00.413Z,100431.44
2023-01-07T15:16:30.272Z,100405.56
2023-01-07T15:18:57.034Z,100411.56
2023-01-07T15:21:47.644Z,100413.63
2023-01-07T15:24:19.607Z,100405.34
2023-01-07T15:26:51.622Z,100412.81
2023-01-07T15:29:43.063Z,100406.63
2023-01-07T15:32:26.840Z,100398.31
2023-01-07T15:34:53.981Z,100391.91
2023-01-07T15:37:20.764Z,100391.50
2023-01-07T15:39:57.765Z,100391.09
2023-01-07T15:42:27.182Z,100382.16
2023-01-07T15:44:56.113Z,100374.72
2023-01-07T15:47:41.020Z,100381.31
2023-01-07T15:50:30.419Z,100362.69
2023-01-07T15:52:59.988Z,100356.50
2023-01-07T15:55:29.301Z,100355.25
2023-01-07T15:58:12.706Z,100353.63
2023-01-07T16:00:39.293Z,100352.78
2023-01-07T16:03:05.973Z,100346.56
2023-01-07T16:05:32.833Z,100340.97
2023-01-07T16:08:01.122Z,100337.84
2023-01-07T16:10:32.301Z,100341.09
2023-01-07T16:13:04.851Z,100338.63
2023-01-07T16:15:34.143Z,100334.50
2023-01-07T16:18:04.233Z,100335.59
2023-01-07T16:20:36.434Z,100333.72
2023-01-07T16:23:08.944Z,100348.22
2023-01-07T16:25:39.059Z,100330.59
2023-01-07T16:28:07.170Z,100337.25
2023-01-07T16:30:39.981Z,100340.09
2023-01-07T16:33:06.795Z,100342.34
2023-01-07T16:35:36.714Z,100341.09
2023-01-07T16:38:04.338Z,100339.25
2023-01-07T16:40:37.519Z,100336.78
2023-01-07T16:43:05.479Z,100347.94
2023-01-07T16:45:34.806Z,100341.50
2023-01-07T16:48:22.636Z,100357.22
2023-01-07T16:50:49.894Z,100335.72
2023-01-07T16:53:24.598Z,100340.50
2023-01-07T16:55:55.005Z,100344.22
2023-01-07T16:58:38.969Z,100345.66
2023-01-07T17:01:06.762Z,100345.88
2023-01-07T17:03:47.403Z,100355.97
2023-01-07T17:06:14.521Z,100344.38
2023-01-07T17:08:48.711Z,100336.34
2023-01-07T17:11:24.448Z,100342.94
2023-01-07T17:13:50.958Z,100351.41
2023-01-07T17:16:32.314Z,100340.66
2023-01-07T17:19:22.992Z,100346.00
2023-01-07T17:21:49.472Z,100334.63
2023-01-07T17:24:46.153Z,100325.31
2023-01-07T17:27:21.704Z,100326.16
2023-01-07T17:29:49.811Z,100329.47
2023-01-07T17:32:16.213Z,100323.88
2023-01-07T17:34:42.618Z,100305.25
2023-01-07T17:37:13.897Z,100318.06
2023-01-07T17:39:40.842Z,100312.88
2023-01-07T17:42:40.908Z,100303.78
2023-01-07T17:45:08.313Z,100311.19
2023-01-07T17:47:34.791Z,100297.75
2023-01-07T17:50:01.473Z,100306.00
2023-01-07T17:52:28.800Z,100293.38
2023-01-07T17:54:55.217Z,100299.63
2023-01-07T17:57:21.588Z,100297.75
2023-01-07T17:59:48.157Z,100289.28
2023-01-07T18:02:19.437Z,100292.22
2023-01-07T18:04:45.926Z,100273.19
2023-01-07T18:07:14.494Z,100271.72
2023-01-07T18:09:42.282Z,100269.03
2023-01-07T18:12:30.364Z,100263.88
2023-01-07T18:15:04.132Z,100261.56
2023-01-07T18:17:30.498Z,100265.69
2023-01-07T18:19:57.197Z,100255.16
2023-01-07T18:22:25.209Z,100262.19
2023-01-07T18:24:51.607Z,100253.28
2023-01-07T18:27:18.653Z,100263.84
2023-01-07T18:29:45.125Z,100268.38
2023-01-07T18:32:11.957Z,100267.53
2023-01-07T18:34:38.357Z,100257.00
2023-01-07T18:37:04.796Z,100253.88
2023-01-07T18:39:31.201Z,100265.91
2023-01-07T18:41:57.592Z,100261.19
2023-01-07T18:44:24.682Z,100254.13
2023-01-07T18:46:51.277Z,100252.22
2023-01-07T18:49:17.928Z,100243.78
2023-01-07T18:51:46.912Z,100251.84
2023-01-07T18:54:13.665Z,100255.94
2023-01-07T18:56:40.221Z,100258.63
2023-01-07T18:59:06.608Z,100255.34
2023-01-07T19:01:33.160Z,100258.25
2023-01-07T19:03:59.652Z,100256.38
2023-01-07T19:06:26.675Z,100273.75
2023-01-07T19:08:54.159Z,100263.84
2023-01-07T19:11:20.579Z,100257.00
2023-01-07T19:13:46.939Z,100263.22
2023-01-07T19:16:13.752Z,100252.47
2023-01-07T19:18:40.494Z,100260.94
2023-01-07T19:21:10.721Z,100245.84
2023-01-07T19:23:37.147Z,100251.84
2023-01-07T19:26:06.715Z,100256.38
2023-01-07T19:28:33.288Z,100247.09
2023-01-07T19:30:59.739Z,100234.09
2023-01-07T19:33:26.383Z,100244.41
2023-01-07T19:36:09.241Z,100230.97
2023-01-07T19:38:44.718Z,100225.59
2023-01-07T19:41:14.795Z,100227.47
2023-01-07T19:43:41.625Z,100226.25
2023-01-07T19:46:08.465Z,100217.16
2023-01-07T19:48:34.959Z,100224.38
2023-01-07T19:51:03.209Z,100218.81
2023-01-07T19:53:30.583Z,100212.00
2023-01-07T19:56:01.499Z,100204.53
2023-01-07T19:58:28.851Z,100201.66
2023-01-07T20:00:55.977Z,100206.81
2023-01-07T20:03:22.435Z,100192.75
2023-01-07T20:05:48.873Z,100201.44
2023-01-07T20:08:15.291Z,100189.03
2023-01-07T20:10:41.721Z,100205.31
2023-01-07T20:13:08.108Z,100190.28
2023-01-07T20:15:34.561Z,100191.28
2023-01-07T20:18:00.963Z,100188.19
2023-01-07T20:20:27.410Z,100195.44
2023-01-07T20:22:54.649Z,100206.56
2023-01-07T20:25:21.106Z,100193.97
2023-01-07T20:27:47.533Z,100188.81
2023-01-07T20:30:13.973Z,100189.63
2023-01-07T20:32:40.353Z,100191.09
2023-01-07T20:35:07.487Z,100185.50
2023-01-07T20:37:34.431Z,100195.66
2023-01-07T20:40:00.837Z,100186.94
2023-01-07T20:42:27.235Z,100178.47
2023-01-07T20:44:53.611Z,100171.84
2023-01-07T20:47:20.035Z,100172.69
2023-01-07T20:49:46.412Z,100169.38
2023-01-07T20:52:12.877Z,100184.25
2023-01-07T20:54:39.735Z,100166.91
2023-01-07T20:57:06.162Z,100172.69
2023-01-07T20:59:32.560Z,100158.84
2023-01-07T21:01:59.109Z,100154.31
2023-01-07T21:04:28.888Z,100158.03
2023-01-07T21:06:55.472Z,100159.88
2023-01-07T21:09:22.004Z,100163.00
2023-01-07T21:11:48.479Z,100161.94
2023-01-07T21:14:14.919Z,100151.63
2023-01-07T21:16:41.466Z,100164.44
2023-01-07T21:19:08.001Z,100159.25
2023-01-07T21:21:34.484Z,100162.38
2023-01-07T21:24:00.930Z,100156.16
2023-01-07T21:26:27.387Z,100159.88
2023-01-07T21:28:58.836Z,100152.03
2023-01-07T21:31:26.774Z,100155.97
2023-01-07T21:33:57.304Z,100148.94
2023-01-07T21:36:25.014Z,100160.09
2023-01-07T21:38:56.764Z,100162.16
2023-01-07T21:41:24.441Z,100166.09
2023-01-07T21:43:51.348Z,100152.84
2023-01-07T21:46:17.754Z,100149.97
2023-01-07T21:48:46.803Z,100151.63
2023-01-07T21:51:25.188Z,100149.56
2023-01-07T21:53:55.483Z,100141.69
2023-01-07T21:56:23.328Z,100146.25
2023-01-07T21:58:49.768Z,100142.53
2023-01-07T22:01:17.785Z,100152.66
2023-01-07T22:03:47.191Z,100146.44
2023-01-07T22:06:18.741Z,100151.41
2023-01-07T22:08:45.099Z,100141.28
2023-01-07T22:11:13.974Z,100143.97
2023-01-07T22:13:40.814Z,100143.13
2023-01-07T22:16:08.120Z,100145.63
2023-01-07T22:18:34.917Z,100145.41
2023-01-07T22:21:01.311Z,100151.19
2023-01-07T22:23:27.822Z,100148.31
2023-01-07T22:25:54.170Z,100152.03
2023-01-07T22:28:23.287Z,100151.00
2023-01-07T22:30:54.414Z,100143.56
2023-01-07T22:33:22.572Z,100159.47
2023-01-07T22:35:50.285Z,100151.63
2023-01-07T22:38:18.885Z,100160.50
2023-01-07T22:40:45.293Z,100147.69
2023-01-07T22:43:16.805Z,100147.06
2023-01-07T22:46:00.673Z,100149.16
2023-01-07T22:48:33.028Z,100151.63
2023-01-07T22:51:10.925Z,100149.75
2023-01-07T22:53:37.657Z,100152.66
2023-01-07T22:56:04.272Z,100168.56
2023-01-07T22:58:30.722Z,100160.72
2023-01-07T23:00:57.284Z,100155.94
2023-01-07T23:03:24.172Z,100155.94
2023-01-07T23:05:51.235Z,100147.47
2023-01-07T23:08:17.774Z,100165.06
2023-01-07T23:10:44.281Z,100173.13
2023-01-07T23:13:11.543Z,100177.63
2023-01-07T23:15:38.810Z,100164.00
2023-01-07T23:18:06.623Z,100175.16
2023-01-07T23:20:34.007Z,100170.22
2023-01-07T23:23:03.309Z,100168.34
2023-01-07T23:25:29.739Z,100167.13
2023-01-07T23:27:56.204Z,100171.66
2023-01-07T23:30:23.088Z,100170.03
2023-01-07T23:32:49.482Z,100169.59
2023-01-07T23:35:16.488Z,100179.09
2023-01-07T23:37:42.955Z,100167.72
2023-01-07T23:40:10.295Z,100171.03
2023-01-07T23:42:36.987Z,100180.97
2023-01-07T23:45:06.991Z,100171.03
2023-01-07T23:47:34.079Z,100177.06
2023-01-07T23:50:00.478Z,100180.34
2023-01-07T23:52:26.908Z,100174.97
2023-01-07T23:54:53.343Z,100174.97
2023-01-07T23:57:19.760Z,100165.66
2023-01-07T23:59:46.247Z,100167.53
